sensor_id;sensor_type;location;lat;lon;timestamp;pressure;altitude;pressure_sealevel;temperature;humidity
45050;BME280;61798;48.048;-1.928;2023-07-20T00:01:53;101144.19;;;13.75;100.00
45050;BME280;61798;48.048;-1.928;2023-07-20T00:03:59;101144.44;;;13.80;100.00
45050;BME280;61798;48.048;-1.928;2023-07-20T00:06:05;101140.31;;;13.84;100.00
45050;BME280;61798;48.048;-1.928;2023-07-20T00:08:11;101143.78;;;13.78;100.00
45050;BME280;61798;48.048;-1.928;2023-07-20T00:10:17;101141.50;;;13.75;100.00
45050;BME280;61798;48.048;-1.928;2023-07-20T00:12:23;101144.63;;;13.85;100.00
45050;BME280;61798;48.048;-1.928;2023-07-20T00:14:29;101135.94;;;13.83;100.00
45050;BME280;61798;48.048;-1.928;2023-07-20T00:16:35;101107.50;;;13.67;100.00
45050;BME280;61798;48.048;-1.928;2023-07-20T00:18:41;101144.25;;;13.89;100.00
45050;BME280;61798;48.048;-1.928;2023-07-20T00:20:47;101128.28;;;13.80;100.00
45050;BME280;61798;48.048;-1.928;2023-07-20T00:22:53;101128.03;;;13.75;100.00
45050;BME280;61798;48.048;-1.928;2023-07-20T00:25:01;101122.66;;;13.75;100.00
45050;BME280;61798;48.048;-1.928;2023-07-20T00:27:07;101114.97;;;13.72;100.00
45050;BME280;61798;48.048;-1.928;2023-07-20T00:29:12;101137.78;;;13.76;100.00
45050;BME280;61798;48.048;-1.928;2023-07-20T00:31:19;101124.50;;;13.74;100.00
45050;BME280;61798;48.048;-1.928;2023-07-20T00:33:25;101119.13;;;13.68;100.00
45050;BME280;61798;48.048;-1.928;2023-07-20T00:35:31;101126.19;;;13.82;100.00
45050;BME280;61798;48.048;-1.928;2023-07-20T00:37:38;101138.06;;;14.02;100.00
45050;BME280;61798;48.048;-1.928;2023-07-20T00:39:44;101136.84;;;14.04;100.00
45050;BME280;61798;48.048;-1.928;2023-07-20T00:41:50;101137.25;;;14.22;100.00
45050;BME280;61798;48.048;-1.928;2023-07-20T00:43:56;101127.53;;;14.34;100.00
45050;BME280;61798;48.048;-1.928;2023-07-20T00:46:02;101100.38;;;14.36;100.00
45050;BME280;61798;48.048;-1.928;2023-07-20T00:48:08;101086.25;;;14.61;100.00
45050;BME280;61798;48.048;-1.928;2023-07-20T00:50:14;101095.56;;;14.79;100.00
45050;BME280;61798;48.048;-1.928;2023-07-20T00:52:22;101080.88;;;14.54;100.00
45050;BME280;61798;48.048;-1.928;2023-07-20T00:54:29;101105.09;;;14.82;100.00
45050;BME280;61798;48.048;-1.928;2023-07-20T00:56:36;101073.59;;;14.75;100.00
45050;BME280;61798;48.048;-1.928;2023-07-20T00:58:42;101071.50;;;14.70;100.00
45050;BME280;61798;48.048;-1.928;2023-07-20T01:00:48;101091.00;;;14.79;100.00
45050;BME280;61798;48.048;-1.928;2023-07-20T01:02:54;101086.44;;;15.00;100.00
45050;BME280;61798;48.048;-1.928;2023-07-20T01:05:00;101078.78;;;14.77;100.00
45050;BME280;61798;48.048;-1.928;2023-07-20T01:07:42;101095.97;;;14.69;100.00
45050;BME280;61798;48.048;-1.928;2023-07-20T01:10:12;101093.53;;;14.20;100.00
45050;BME280;61798;48.048;-1.928;2023-07-20T01:14:27;101050.81;;;14.23;100.00
45050;BME280;61798;48.048;-1.928;2023-07-20T01:16:33;101081.28;;;14.58;100.00
45050;BME280;61798;48.048;-1.928;2023-07-20T01:18:39;101081.91;;;14.46;100.00
45050;BME280;61798;48.048;-1.928;2023-07-20T01:20:45;101077.34;;;14.33;100.00
45050;BME280;61798;48.048;-1.928;2023-07-20T01:30:55;101094.94;;;13.95;100.00
45050;BME280;61798;48.048;-1.928;2023-07-20T01:33:05;101069.19;;;13.79;100.00
45050;BME280;61798;48.048;-1.928;2023-07-20T01:35:14;101076.88;;;13.75;100.00
45050;BME280;61798;48.048;-1.928;2023-07-20T01:37:21;101079.59;;;13.95;100.00
45050;BME280;61798;48.048;-1.928;2023-07-20T01:39:31;101087.22;;;13.78;100.00
45050;BME280;61798;48.048;-1.928;2023-07-20T01:41:38;101079.28;;;13.56;100.00
45050;BME280;61798;48.048;-1.928;2023-07-20T01:43:45;101071.13;;;13.42;100.00
45050;BME280;61798;48.048;-1.928;2023-07-20T01:45:52;101095.41;;;13.49;100.00
45050;BME280;61798;48.048;-1.928;2023-07-20T01:47:58;101081.31;;;13.47;100.00
45050;BME280;61798;48.048;-1.928;2023-07-20T01:50:04;101079.78;;;13.31;100.00
45050;BME280;61798;48.048;-1.928;2023-07-20T01:52:10;101087.00;;;13.24;100.00
45050;BME280;61798;48.048;-1.928;2023-07-20T01:54:16;101084.88;;;13.12;100.00
45050;BME280;61798;48.048;-1.928;2023-07-20T01:56:22;101111.78;;;13.12;100.00
45050;BME280;61798;48.048;-1.928;2023-07-20T01:58:28;101084.81;;;12.98;100.00
45050;BME280;61798;48.048;-1.928;2023-07-20T02:00:37;101100.50;;;12.95;100.00
45050;BME280;61798;48.048;-1.928;2023-07-20T02:02:43;101117.53;;;13.02;100.00
45050;BME280;61798;48.048;-1.928;2023-07-20T02:04:49;101094.47;;;12.86;100.00
45050;BME280;61798;48.048;-1.928;2023-07-20T02:06:54;101085.75;;;12.84;100.00
45050;BME280;61798;48.048;-1.928;2023-07-20T02:09:00;101099.06;;;12.92;100.00
45050;BME280;61798;48.048;-1.928;2023-07-20T02:11:06;101093.94;;;12.97;100.00
45050;BME280;61798;48.048;-1.928;2023-07-20T02:13:12;101089.34;;;12.98;100.00
45050;BME280;61798;48.048;-1.928;2023-07-20T02:15:18;101085.78;;;12.90;100.00
45050;BME280;61798;48.048;-1.928;2023-07-20T02:17:25;101092.72;;;13.07;100.00
45050;BME280;61798;48.048;-1.928;2023-07-20T02:19:31;101086.78;;;13.18;100.00
45050;BME280;61798;48.048;-1.928;2023-07-20T02:21:37;101075.16;;;13.11;100.00
45050;BME280;61798;48.048;-1.928;2023-07-20T02:23:43;101097.97;;;13.22;100.00
45050;BME280;61798;48.048;-1.928;2023-07-20T02:25:49;101084.88;;;13.12;100.00
45050;BME280;61798;48.048;-1.928;2023-07-20T02:27:56;101093.00;;;13.19;100.00
45050;BME280;61798;48.048;-1.928;2023-07-20T02:30:03;101080.53;;;13.11;100.00
45050;BME280;61798;48.048;-1.928;2023-07-20T02:32:09;101096.50;;;13.19;100.00
45050;BME280;61798;48.048;-1.928;2023-07-20T02:34:18;101097.50;;;13.11;100.00
45050;BME280;61798;48.048;-1.928;2023-07-20T02:36:24;101084.22;;;13.03;100.00
45050;BME280;61798;48.048;-1.928;2023-07-20T02:38:30;101078.59;;;12.98;100.00
45050;BME280;61798;48.048;-1.928;2023-07-20T02:40:36;101070.09;;;12.94;100.00
45050;BME280;61798;48.048;-1.928;2023-07-20T02:42:41;101073.03;;;12.99;100.00
45050;BME280;61798;48.048;-1.928;2023-07-20T02:44:48;101073.97;;;12.85;100.00
45050;BME280;61798;48.048;-1.928;2023-07-20T02:46:54;101070.06;;;12.87;100.00
45050;BME280;61798;48.048;-1.928;2023-07-20T02:48:59;101076.84;;;12.83;100.00
45050;BME280;61798;48.048;-1.928;2023-07-20T02:51:05;101079.13;;;12.79;100.00
45050;BME280;61798;48.048;-1.928;2023-07-20T02:53:13;101080.19;;;12.85;100.00
45050;BME280;61798;48.048;-1.928;2023-07-20T02:55:19;101090.16;;;12.92;100.00
45050;BME280;61798;48.048;-1.928;2023-07-20T02:57:25;101086.47;;;12.99;100.00
45050;BME280;61798;48.048;-1.928;2023-07-20T02:59:32;101077.72;;;12.90;100.00
45050;BME280;61798;48.048;-1.928;2023-07-20T03:01:38;101080.03;;;12.94;100.00
45050;BME280;61798;48.048;-1.928;2023-07-20T03:03:44;101067.91;;;12.76;100.00
45050;BME280;61798;48.048;-1.928;2023-07-20T03:05:53;101060.69;;;12.76;100.00
45050;BME280;61798;48.048;-1.928;2023-07-20T03:08:01;101054.03;;;12.72;100.00
45050;BME280;61798;48.048;-1.928;2023-07-20T03:10:09;101073.22;;;12.98;100.00
45050;BME280;61798;48.048;-1.928;2023-07-20T03:12:15;101063.50;;;12.97;100.00
45050;BME280;61798;48.048;-1.928;2023-07-20T03:14:21;101066.97;;;13.33;100.00
45050;BME280;61798;48.048;-1.928;2023-07-20T03:16:28;101048.00;;;13.06;100.00
45050;BME280;61798;48.048;-1.928;2023-07-20T03:18:34;101046.13;;;12.99;100.00
45050;BME280;61798;48.048;-1.928;2023-07-20T03:20:40;101033.84;;;12.90;100.00
45050;BME280;61798;48.048;-1.928;2023-07-20T03:22:46;101033.59;;;13.20;100.00
45050;BME280;61798;48.048;-1.928;2023-07-20T03:24:52;101031.84;;;13.55;100.00
45050;BME280;61798;48.048;-1.928;2023-07-20T03:26:58;101043.59;;;13.34;100.00
45050;BME280;61798;48.048;-1.928;2023-07-20T03:29:04;101053.19;;;13.07;100.00
45050;BME280;61798;48.048;-1.928;2023-07-20T03:31:10;101052.63;;;13.19;100.00
45050;BME280;61798;48.048;-1.928;2023-07-20T03:33:16;101030.84;;;13.07;100.00
45050;BME280;61798;48.048;-1.928;2023-07-20T03:35:22;101019.06;;;13.15;100.00
45050;BME280;61798;48.048;-1.928;2023-07-20T03:37:29;101035.06;;;13.30;100.00
45050;BME280;61798;48.048;-1.928;2023-07-20T03:39:35;101039.56;;;13.09;100.00
45050;BME280;61798;48.048;-1.928;2023-07-20T03:41:40;101045.22;;;13.28;100.00
45050;BME280;61798;48.048;-1.928;2023-07-20T03:43:46;101037.03;;;13.57;100.00
45050;BME280;61798;48.048;-1.928;2023-07-20T03:45:53;101038.66;;;13.44;100.00
45050;BME280;61798;48.048;-1.928;2023-07-20T03:47:59;101017.53;;;13.41;100.00
45050;BME280;61798;48.048;-1.928;2023-07-20T03:50:06;101025.41;;;13.49;100.00
45050;BME280;61798;48.048;-1.928;2023-07-20T03:52:12;101020.41;;;13.39;100.00
45050;BME280;61798;48.048;-1.928;2023-07-20T03:54:18;101028.72;;;13.51;100.00
45050;BME280;61798;48.048;-1.928;2023-07-20T03:56:24;101012.34;;;13.46;100.00
45050;BME280;61798;48.048;-1.928;2023-07-20T03:58:30;101024.19;;;13.59;100.00
45050;BME280;61798;48.048;-1.928;2023-07-20T04:00:38;101016.31;;;13.57;100.00
45050;BME280;61798;48.048;-1.928;2023-07-20T04:02:46;101018.63;;;13.60;100.00
45050;BME280;61798;48.048;-1.928;2023-07-20T04:04:53;101009.03;;;13.44;100.00
45050;BME280;61798;48.048;-1.928;2023-07-20T04:07:00;101036.56;;;13.39;100.00
45050;BME280;61798;48.048;-1.928;2023-07-20T04:09:07;101039.66;;;13.43;100.00
45050;BME280;61798;48.048;-1.928;2023-07-20T04:11:15;101007.03;;;13.10;100.00
45050;BME280;61798;48.048;-1.928;2023-07-20T04:13:22;101031.84;;;13.06;100.00
45050;BME280;61798;48.048;-1.928;2023-07-20T04:15:30;101043.16;;;12.87;100.00
45050;BME280;61798;48.048;-1.928;2023-07-20T04:17:38;101030.47;;;12.74;100.00
45050;BME280;61798;48.048;-1.928;2023-07-20T04:19:45;101036.28;;;13.14;100.00
45050;BME280;61798;48.048;-1.928;2023-07-20T04:21:52;101051.66;;;12.91;100.00
45050;BME280;61798;48.048;-1.928;2023-07-20T04:24:00;101050.00;;;12.90;100.00
45050;BME280;61798;48.048;-1.928;2023-07-20T04:26:07;101040.50;;;12.94;100.00
45050;BME280;61798;48.048;-1.928;2023-07-20T04:28:14;101039.56;;;12.73;100.00
45050;BME280;61798;48.048;-1.928;2023-07-20T04:30:22;101028.16;;;12.71;100.00
45050;BME280;61798;48.048;-1.928;2023-07-20T04:32:29;101019.59;;;12.54;100.00
45050;BME280;61798;48.048;-1.928;2023-07-20T04:34:39;101033.47;;;12.93;100.00
45050;BME280;61798;48.048;-1.928;2023-07-20T04:36:46;101042.47;;;12.78;100.00
45050;BME280;61798;48.048;-1.928;2023-07-20T04:38:53;101060.41;;;13.00;100.00
45050;BME280;61798;48.048;-1.928;2023-07-20T04:41:01;101037.25;;;13.06;100.00
45050;BME280;61798;48.048;-1.928;2023-07-20T04:43:08;101020.13;;;13.14;100.00
45050;BME280;61798;48.048;-1.928;2023-07-20T04:45:15;101026.72;;;13.11;100.00
45050;BME280;61798;48.048;-1.928;2023-07-20T04:47:22;101022.56;;;13.08;100.00
45050;BME280;61798;48.048;-1.928;2023-07-20T04:49:29;101027.75;;;13.10;100.00
45050;BME280;61798;48.048;-1.928;2023-07-20T04:51:36;101007.63;;;13.06;100.00
45050;BME280;61798;48.048;-1.928;2023-07-20T04:53:43;101031.31;;;13.17;100.00
45050;BME280;61798;48.048;-1.928;2023-07-20T04:55:51;101028.19;;;13.14;100.00
45050;BME280;61798;48.048;-1.928;2023-07-20T04:58:00;101020.66;;;12.95;100.00
45050;BME280;61798;48.048;-1.928;2023-07-20T05:00:08;101025.97;;;13.31;100.00
45050;BME280;61798;48.048;-1.928;2023-07-20T05:02:18;101038.34;;;13.18;100.00
45050;BME280;61798;48.048;-1.928;2023-07-20T05:04:26;101025.69;;;13.12;100.00
45050;BME280;61798;48.048;-1.928;2023-07-20T05:06:33;101037.53;;;13.25;100.00
45050;BME280;61798;48.048;-1.928;2023-07-20T05:08:41;101028.22;;;13.27;100.00
45050;BME280;61798;48.048;-1.928;2023-07-20T05:10:49;101024.09;;;13.25;100.00
45050;BME280;61798;48.048;-1.928;2023-07-20T05:12:57;101026.53;;;13.19;100.00
45050;BME280;61798;48.048;-1.928;2023-07-20T05:15:04;101028.22;;;13.27;100.00
45050;BME280;61798;48.048;-1.928;2023-07-20T05:17:11;101025.53;;;13.20;100.00
45050;BME280;61798;48.048;-1.928;2023-07-20T05:19:18;101018.50;;;13.26;100.00
45050;BME280;61798;48.048;-1.928;2023-07-20T05:21:27;101036.13;;;13.36;100.00
45050;BME280;61798;48.048;-1.928;2023-07-20T05:23:33;101041.69;;;13.34;100.00
45050;BME280;61798;48.048;-1.928;2023-07-20T05:25:39;101044.22;;;13.42;100.00
45050;BME280;61798;48.048;-1.928;2023-07-20T05:27:45;101017.88;;;13.31;100.00
45050;BME280;61798;48.048;-1.928;2023-07-20T05:29:52;101044.13;;;13.64;100.00
45050;BME280;61798;48.048;-1.928;2023-07-20T05:31:58;101030.66;;;13.64;100.00
45050;BME280;61798;48.048;-1.928;2023-07-20T05:34:04;101030.66;;;13.64;100.00
45050;BME280;61798;48.048;-1.928;2023-07-20T05:36:10;101019.69;;;13.87;100.00
45050;BME280;61798;48.048;-1.928;2023-07-20T05:38:16;101028.84;;;13.92;100.00
45050;BME280;61798;48.048;-1.928;2023-07-20T05:40:22;101024.66;;;13.83;100.00
45050;BME280;61798;48.048;-1.928;2023-07-20T05:42:28;101014.53;;;13.99;100.00
45050;BME280;61798;48.048;-1.928;2023-07-20T05:44:34;101022.38;;;13.73;100.00
45050;BME280;61798;48.048;-1.928;2023-07-20T05:46:40;101014.31;;;14.07;100.00
45050;BME280;61798;48.048;-1.928;2023-07-20T05:48:46;101010.19;;;14.25;100.00
45050;BME280;61798;48.048;-1.928;2023-07-20T05:50:52;101026.13;;;14.33;100.00
45050;BME280;61798;48.048;-1.928;2023-07-20T05:52:58;100998.16;;;14.21;100.00
45050;BME280;61798;48.048;-1.928;2023-07-20T05:55:05;100991.50;;;14.37;100.00
45050;BME280;61798;48.048;-1.928;2023-07-20T05:57:11;100994.19;;;14.37;100.00
45050;BME280;61798;48.048;-1.928;2023-07-20T05:59:17;100983.00;;;14.26;100.00
45050;BME280;61798;48.048;-1.928;2023-07-20T06:01:23;101006.81;;;14.57;100.00
45050;BME280;61798;48.048;-1.928;2023-07-20T06:03:32;100979.25;;;14.48;100.00
45050;BME280;61798;48.048;-1.928;2023-07-20T06:05:45;100986.72;;;14.53;100.00
45050;BME280;61798;48.048;-1.928;2023-07-20T06:07:51;100998.44;;;14.79;100.00
45050;BME280;61798;48.048;-1.928;2023-07-20T06:09:57;100987.63;;;14.86;100.00
45050;BME280;61798;48.048;-1.928;2023-07-20T06:12:04;100986.44;;;14.61;100.00
45050;BME280;61798;48.048;-1.928;2023-07-20T06:14:10;100986.34;;;14.29;100.00
45050;BME280;61798;48.048;-1.928;2023-07-20T06:16:16;101007.47;;;14.32;100.00
45050;BME280;61798;48.048;-1.928;2023-07-20T06:18:23;101007.41;;;14.73;100.00
45050;BME280;61798;48.048;-1.928;2023-07-20T06:20:29;101006.06;;;14.89;100.00
45050;BME280;61798;48.048;-1.928;2023-07-20T06:22:56;100990.78;;;14.76;100.00
45050;BME280;61798;48.048;-1.928;2023-07-20T06:25:02;100989.75;;;14.77;100.00
45050;BME280;61798;48.048;-1.928;2023-07-20T06:27:08;100999.69;;;14.83;100.00
45050;BME280;61798;48.048;-1.928;2023-07-20T06:29:15;100997.34;;;15.07;100.00
45050;BME280;61798;48.048;-1.928;2023-07-20T06:31:22;101003.00;;;14.92;100.00
45050;BME280;61798;48.048;-1.928;2023-07-20T06:33:30;100983.97;;;14.66;100.00
45050;BME280;61798;48.048;-1.928;2023-07-20T06:35:37;101007.69;;;15.10;100.00
45050;BME280;61798;48.048;-1.928;2023-07-20T06:37:49;100982.91;;;15.27;100.00
45050;BME280;61798;48.048;-1.928;2023-07-20T06:39:55;100986.97;;;15.43;100.00
45050;BME280;61798;48.048;-1.928;2023-07-20T06:42:02;100976.91;;;15.58;100.00
45050;BME280;61798;48.048;-1.928;2023-07-20T06:44:11;100998.88;;;15.68;100.00
45050;BME280;61798;48.048;-1.928;2023-07-20T06:46:18;100967.13;;;15.57;100.00
45050;BME280;61798;48.048;-1.928;2023-07-20T06:48:25;100987.56;;;15.52;100.00
45050;BME280;61798;48.048;-1.928;2023-07-20T06:50:32;100988.94;;;15.62;100.00
45050;BME280;61798;48.048;-1.928;2023-07-20T06:52:42;100997.41;;;15.72;100.00
45050;BME280;61798;48.048;-1.928;2023-07-20T06:54:51;100980.69;;;15.82;100.00
45050;BME280;61798;48.048;-1.928;2023-07-20T06:57:10;100982.19;;;16.04;100.00
45050;BME280;61798;48.048;-1.928;2023-07-20T06:59:19;100988.97;;;16.13;100.00
45050;BME280;61798;48.048;-1.928;2023-07-20T07:01:26;100965.47;;;16.14;100.00
45050;BME280;61798;48.048;-1.928;2023-07-20T07:03:34;100976.84;;;16.23;100.00
45050;BME280;61798;48.048;-1.928;2023-07-20T07:05:44;100942.97;;;16.20;100.00
45050;BME280;61798;48.048;-1.928;2023-07-20T07:07:55;100954.38;;;16.22;100.00
45050;BME280;61798;48.048;-1.928;2023-07-20T07:10:02;100975.56;;;16.25;100.00
45050;BME280;61798;48.048;-1.928;2023-07-20T07:12:18;100984.50;;;16.45;100.00
45050;BME280;61798;48.048;-1.928;2023-07-20T07:14:35;100977.00;;;16.47;100.00
45050;BME280;61798;48.048;-1.928;2023-07-20T07:16:43;100931.03;;;16.28;100.00
45050;BME280;61798;48.048;-1.928;2023-07-20T07:18:51;100944.22;;;16.36;100.00
45050;BME280;61798;48.048;-1.928;2023-07-20T07:20:59;100948.00;;;16.54;100.00
45050;BME280;61798;48.048;-1.928;2023-07-20T07:23:08;100961.06;;;16.57;100.00
45050;BME280;61798;48.048;-1.928;2023-07-20T07:25:15;100929.06;;;16.54;100.00
45050;BME280;61798;48.048;-1.928;2023-07-20T07:27:26;100957.22;;;16.84;100.00
45050;BME280;61798;48.048;-1.928;2023-07-20T07:29:48;100946.03;;;16.80;100.00
45050;BME280;61798;48.048;-1.928;2023-07-20T07:31:56;100928.97;;;16.61;100.00
45050;BME280;61798;48.048;-1.928;2023-07-20T07:34:24;100935.84;;;16.64;100.00
45050;BME280;61798;48.048;-1.928;2023-07-20T07:36:35;100981.47;;;17.10;100.00
45050;BME280;61798;48.048;-1.928;2023-07-20T07:38:57;100977.13;;;17.40;100.00
45050;BME280;61798;48.048;-1.928;2023-07-20T07:41:22;100923.06;;;17.02;100.00
45050;BME280;61798;48.048;-1.928;2023-07-20T07:43:34;100940.84;;;17.10;100.00
45050;BME280;61798;48.048;-1.928;2023-07-20T07:45:47;100940.28;;;17.08;100.00
45050;BME280;61798;48.048;-1.928;2023-07-20T07:47:59;100984.88;;;17.36;100.00
45050;BME280;61798;48.048;-1.928;2023-07-20T07:50:13;100953.78;;;17.27;100.00
45050;BME280;61798;48.048;-1.928;2023-07-20T07:52:26;100976.03;;;17.29;100.00
45050;BME280;61798;48.048;-1.928;2023-07-20T07:54:41;100979.03;;;17.39;100.00
45050;BME280;61798;48.048;-1.928;2023-07-20T07:57:01;100956.44;;;17.46;100.00
45050;BME280;61798;48.048;-1.928;2023-07-20T07:59:08;100964.19;;;17.42;100.00
45050;BME280;61798;48.048;-1.928;2023-07-20T08:01:15;100965.53;;;17.75;100.00
45050;BME280;61798;48.048;-1.928;2023-07-20T08:03:25;100959.19;;;17.82;100.00
45050;BME280;61798;48.048;-1.928;2023-07-20T08:05:37;100957.88;;;17.72;100.00
45050;BME280;61798;48.048;-1.928;2023-07-20T08:07:45;100915.09;;;17.50;100.00
45050;BME280;61798;48.048;-1.928;2023-07-20T08:09:57;100970.75;;;17.77;100.00
45050;BME280;61798;48.048;-1.928;2023-07-20T08:12:08;100934.56;;;17.83;100.00
45050;BME280;61798;48.048;-1.928;2023-07-20T08:14:14;100909.81;;;17.80;100.00
45050;BME280;61798;48.048;-1.928;2023-07-20T08:16:24;100941.88;;;18.19;100.00
45050;BME280;61798;48.048;-1.928;2023-07-20T08:18:34;100945.78;;;17.99;100.00
45050;BME280;61798;48.048;-1.928;2023-07-20T08:20:44;100953.66;;;18.37;100.00
45050;BME280;61798;48.048;-1.928;2023-07-20T08:23:25;100966.66;;;18.35;100.00
45050;BME280;61798;48.048;-1.928;2023-07-20T08:27:12;100955.13;;;18.69;100.00
45050;BME280;61798;48.048;-1.928;2023-07-20T08:30:04;100914.03;;;18.12;100.00
45050;BME280;61798;48.048;-1.928;2023-07-20T08:32:54;100959.91;;;18.49;100.00
45050;BME280;61798;48.048;-1.928;2023-07-20T08:35:16;100933.75;;;18.19;100.00
45050;BME280;61798;48.048;-1.928;2023-07-20T08:37:31;100937.88;;;18.34;100.00
45050;BME280;61798;48.048;-1.928;2023-07-20T08:39:59;100947.44;;;18.78;100.00
45050;BME280;61798;48.048;-1.928;2023-07-20T08:42:59;100891.44;;;17.94;100.00
45050;BME280;61798;48.048;-1.928;2023-07-20T08:45:12;100914.03;;;18.00;100.00
45050;BME280;61798;48.048;-1.928;2023-07-20T08:47:27;100930.31;;;18.12;100.00
45050;BME280;61798;48.048;-1.928;2023-07-20T08:49:35;100927.50;;;18.31;100.00
45050;BME280;61798;48.048;-1.928;2023-07-20T08:51:42;100914.44;;;18.69;100.00
45050;BME280;61798;48.048;-1.928;2023-07-20T08:53:51;100879.38;;;18.67;100.00
45050;BME280;61798;48.048;-1.928;2023-07-20T08:56:00;100916.22;;;18.92;100.00
45050;BME280;61798;48.048;-1.928;2023-07-20T08:58:12;100943.16;;;19.11;100.00
45050;BME280;61798;48.048;-1.928;2023-07-20T09:00:21;100897.16;;;19.05;100.00
45050;BME280;61798;48.048;-1.928;2023-07-20T09:02:28;100909.63;;;19.18;100.00
45050;BME280;61798;48.048;-1.928;2023-07-20T09:04:36;100904.53;;;18.63;100.00
45050;BME280;61798;48.048;-1.928;2023-07-20T09:06:43;100926.19;;;19.04;100.00
45050;BME280;61798;48.048;-1.928;2023-07-20T09:08:51;100906.97;;;18.35;100.00
45050;BME280;61798;48.048;-1.928;2023-07-20T09:11:02;100907.97;;;18.58;100.00
45050;BME280;61798;48.048;-1.928;2023-07-20T09:13:14;100906.28;;;18.69;100.00
45050;BME280;61798;48.048;-1.928;2023-07-20T09:15:30;100922.75;;;19.09;100.00
45050;BME280;61798;48.048;-1.928;2023-07-20T09:21:50;100914.50;;;18.86;100.00
45050;BME280;61798;48.048;-1.928;2023-07-20T09:23:57;100915.25;;;18.99;100.00
45050;BME280;61798;48.048;-1.928;2023-07-20T09:26:10;100927.94;;;19.40;100.00
45050;BME280;61798;48.048;-1.928;2023-07-20T09:28:16;100895.09;;;19.41;100.00
45050;BME280;61798;48.048;-1.928;2023-07-20T09:30:26;100916.47;;;19.55;100.00
45050;BME280;61798;48.048;-1.928;2023-07-20T09:32:38;100892.59;;;19.40;100.00
45050;BME280;61798;48.048;-1.928;2023-07-20T09:34:45;100889.88;;;19.40;100.00
45050;BME280;61798;48.048;-1.928;2023-07-20T09:36:52;100911.13;;;19.43;100.00
45050;BME280;61798;48.048;-1.928;2023-07-20T09:39:02;100910.19;;;19.20;100.00
45050;BME280;61798;48.048;-1.928;2023-07-20T09:41:14;100901.75;;;19.51;100.00
45050;BME280;61798;48.048;-1.928;2023-07-20T09:43:28;100910.44;;;20.05;100.00
45050;BME280;61798;48.048;-1.928;2023-07-20T09:45:40;100899.03;;;20.08;100.00
45050;BME280;61798;48.048;-1.928;2023-07-20T09:47:51;100889.91;;;20.37;100.00
45050;BME280;61798;48.048;-1.928;2023-07-20T09:50:00;100885.00;;;20.16;100.00
45050;BME280;61798;48.048;-1.928;2023-07-20T09:52:08;100906.69;;;20.11;100.00
45050;BME280;61798;48.048;-1.928;2023-07-20T09:54:15;100901.09;;;19.78;100.00
45050;BME280;61798;48.048;-1.928;2023-07-20T09:56:24;100878.66;;;19.88;100.00
45050;BME280;61798;48.048;-1.928;2023-07-20T09:58:31;100882.50;;;20.32;100.00
45050;BME280;61798;48.048;-1.928;2023-07-20T10:00:40;100868.88;;;20.55;100.00
45050;BME280;61798;48.048;-1.928;2023-07-20T10:02:50;100872.91;;;20.07;100.00
45050;BME280;61798;48.048;-1.928;2023-07-20T10:05:02;100904.19;;;20.27;100.00
45050;BME280;61798;48.048;-1.928;2023-07-20T10:07:14;100870.66;;;20.44;100.00
45050;BME280;61798;48.048;-1.928;2023-07-20T10:09:24;100890.53;;;20.95;100.00
45050;BME280;61798;48.048;-1.928;2023-07-20T10:11:34;100874.88;;;21.07;100.00
45050;BME280;61798;48.048;-1.928;2023-07-20T10:13:43;100885.84;;;21.51;100.00
45050;BME280;61798;48.048;-1.928;2023-07-20T10:15:54;100881.84;;;21.26;100.00
45050;BME280;61798;48.048;-1.928;2023-07-20T10:18:11;100866.31;;;20.98;100.00
45050;BME280;61798;48.048;-1.928;2023-07-20T10:20:20;100892.16;;;20.96;100.00
45050;BME280;61798;48.048;-1.928;2023-07-20T10:22:31;100890.97;;;20.86;100.00
45050;BME280;61798;48.048;-1.928;2023-07-20T10:24:45;100885.34;;;20.20;100.00
45050;BME280;61798;48.048;-1.928;2023-07-20T10:26:55;100855.88;;;20.34;100.00
45050;BME280;61798;48.048;-1.928;2023-07-20T10:29:05;100845.22;;;20.33;100.00
45050;BME280;61798;48.048;-1.928;2023-07-20T10:31:13;100853.56;;;20.48;100.00
45050;BME280;61798;48.048;-1.928;2023-07-20T10:33:22;100850.91;;;20.54;100.00
45050;BME280;61798;48.048;-1.928;2023-07-20T10:35:30;100852.13;;;20.96;100.00
45050;BME280;61798;48.048;-1.928;2023-07-20T10:42:33;100867.09;;;21.21;100.00
45050;BME280;61798;48.048;-1.928;2023-07-20T10:44:40;100855.84;;;21.12;100.00
45050;BME280;61798;48.048;-1.928;2023-07-20T10:46:46;100856.91;;;21.11;100.00
45050;BME280;61798;48.048;-1.928;2023-07-20T10:49:02;100847.94;;;21.11;100.00
45050;BME280;61798;48.048;-1.928;2023-07-20T10:51:13;100848.22;;;21.15;100.00
45050;BME280;61798;48.048;-1.928;2023-07-20T10:53:21;100834.69;;;21.25;100.00
45050;BME280;61798;48.048;-1.928;2023-07-20T10:55:28;100827.72;;;21.07;100.00
45050;BME280;61798;48.048;-1.928;2023-07-20T10:57:35;100827.53;;;20.86;100.00
45050;BME280;61798;48.048;-1.928;2023-07-20T10:59:42;100830.81;;;20.88;100.00
45050;BME280;61798;48.048;-1.928;2023-07-20T11:01:54;100830.94;;;21.03;100.00
45050;BME280;61798;48.048;-1.928;2023-07-20T11:04:08;100836.22;;;21.54;100.00
45050;BME280;61798;48.048;-1.928;2023-07-20T11:08:42;100827.94;;;21.82;100.00
45050;BME280;61798;48.048;-1.928;2023-07-20T11:11:23;100822.44;;;22.31;100.00
45050;BME280;61798;48.048;-1.928;2023-07-20T11:13:33;100791.13;;;20.97;100.00
45050;BME280;61798;48.048;-1.928;2023-07-20T11:16:02;100821.50;;;21.11;100.00
45050;BME280;61798;48.048;-1.928;2023-07-20T11:18:12;100810.31;;;21.95;100.00
45050;BME280;61798;48.048;-1.928;2023-07-20T11:20:19;100812.63;;;22.40;100.00
45050;BME280;61798;48.048;-1.928;2023-07-20T11:22:26;100805.03;;;22.68;100.00